Time;durP1;ratioP1;P1;durP2;ratioP2;P2;SDS_P1;SDS_P2;PMS_P1;PMS_P2;Temp;Humidity;BMP_temperature;BMP_pressure;BME280_temperature;BME280_humidity;BME280_pressure;Samples;Min_cycle;Max_cycle;Signal;HPM_P1;HPM_P2
2022/09/09 00:01:17;;;;;;;16.58;10.63;;;13.70;99.90;;;;;;5075994;28;20036;-78
2022/09/09 00:04:02;;;;;;;11.10;8.57;;;13.70;99.90;;;;;;5075952;28;20044;-77
2022/09/09 00:06:31;;;;;;;14.52;8.48;;;13.70;99.90;;;;;;5058419;28;20105;-78
2022/09/09 00:09:17;;;;;;;16.85;8.82;;;13.70;99.90;;;;;;5058168;28;20101;-79
2022/09/09 00:11:50;;;;;;;16.55;9.80;;;13.60;99.90;;;;;;5075882;28;20041;-78
2022/09/09 00:14:22;;;;;;;17.42;8.82;;;13.60;99.90;;;;;;5075746;28;20087;-78
2022/09/09 00:16:55;;;;;;;13.68;8.75;;;13.60;99.90;;;;;;5075350;28;20040;-78
2022/09/09 00:19:33;;;;;;;15.07;8.63;;;13.60;99.90;;;;;;5075590;28;20052;-78
2022/09/09 00:22:17;;;;;;;13.60;9.10;;;13.60;99.90;;;;;;5058098;28;20114;-78
2022/09/09 00:24:49;;;;;;;13.13;8.15;;;13.50;99.90;;;;;;5058044;28;20048;-79
2022/09/09 00:27:32;;;;;;;15.82;8.75;;;13.50;99.90;;;;;;5058116;28;20048;-78
2022/09/09 00:30:23;;;;;;;21.52;8.43;;;13.50;99.90;;;;;;5057982;28;20484;-77
2022/09/09 00:32:54;;;;;;;16.30;8.07;;;13.50;99.90;;;;;;5050462;28;20111;-77
2022/09/09 00:35:47;;;;;;;10.85;7.78;;;13.50;99.90;;;;;;5075384;28;20049;-78
2022/09/09 00:38:33;;;;;;;12.18;7.93;;;13.50;99.90;;;;;;5057589;28;20127;-77
2022/09/09 00:41:14;;;;;;;16.83;7.38;;;13.50;99.90;;;;;;5057705;28;20182;-78
2022/09/09 00:43:41;;;;;;;17.90;8.70;;;13.50;99.90;;;;;;5075289;28;20044;-78
2022/09/09 00:46:10;;;;;;;10.55;7.75;;;13.50;99.90;;;;;;5075222;28;20131;-78
2022/09/09 00:48:42;;;;;;;15.57;8.70;;;13.40;99.90;;;;;;5074871;28;20048;-76
2022/09/09 00:51:17;;;;;;;12.07;8.13;;;13.40;99.90;;;;;;5057387;28;20056;-78
2022/09/09 00:54:14;;;;;;;14.20;7.60;;;13.50;99.90;;;;;;5057639;28;20044;-77
2022/09/09 00:56:55;;;;;;;9.75;7.38;;;13.50;99.90;;;;;;5075238;28;20052;-77
2022/09/09 00:59:29;;;;;;;11.45;7.97;;;13.50;99.90;;;;;;5074739;28;20048;-77
2022/09/09 01:01:55;;;;;;;16.98;8.00;;;13.50;99.90;;;;;;5057517;28;20075;-78
2022/09/09 01:04:33;;;;;;;11.93;7.38;;;13.50;99.90;;;;;;5074635;28;20807;-78
2022/09/09 01:07:16;;;;;;;12.45;8.32;;;13.50;99.90;;;;;;5074850;28;20346;-78
2022/09/09 01:09:56;;;;;;;11.85;8.80;;;13.50;99.90;;;;;;5074887;28;20350;-80
2022/09/09 01:12:43;;;;;;;14.73;8.13;;;13.60;99.90;;;;;;5074655;28;20431;-77
2022/09/09 01:15:24;;;;;;;9.93;8.48;;;13.60;99.90;;;;;;5074487;28;20405;-77
2022/09/09 01:18:13;;;;;;;15.90;8.70;;;13.60;99.90;;;;;;5074456;28;20040;-77
2022/09/09 01:21:06;;;;;;;15.98;10.13;;;13.60;99.90;;;;;;5074513;28;20047;-78
2022/09/09 01:24:02;;;;;;;12.52;8.18;;;13.70;99.90;;;;;;5074072;28;20080;-77
2022/09/09 01:26:39;;;;;;;12.63;8.13;;;13.70;99.90;;;;;;5056872;28;20052;-78
2022/09/09 01:29:11;;;;;;;11.57;8.85;;;13.80;99.90;;;;;;5074481;28;20044;-78
2022/09/09 01:31:42;;;;;;;12.95;8.93;;;13.80;99.90;;;;;;5074340;28;20408;-78
2022/09/09 01:34:17;;;;;;;15.40;8.60;;;13.80;99.90;;;;;;5074083;28;20087;-79
2022/09/09 01:36:59;;;;;;;19.05;9.93;;;13.80;99.90;;;;;;5074291;28;20040;-78
2022/09/09 01:39:26;;;;;;;11.98;9.05;;;13.80;99.90;;;;;;5056724;28;20139;-78
2022/09/09 01:41:52;;;;;;;12.55;9.30;;;13.80;99.90;;;;;;5074086;28;20045;-80
2022/09/09 01:44:19;;;;;;;14.85;8.60;;;13.90;99.90;;;;;;5056448;28;20128;-78
2022/09/09 01:46:45;;;;;;;14.60;8.82;;;13.90;99.90;;;;;;5056684;28;20044;-78
2022/09/09 01:49:11;;;;;;;14.75;8.70;;;13.90;99.90;;;;;;5056064;28;20075;-78
2022/09/09 01:51:40;;;;;;;14.23;8.85;;;13.90;99.90;;;;;;5073990;28;20040;-77
2022/09/09 01:54:07;;;;;;;13.27;8.60;;;13.90;99.90;;;;;;5074065;28;20124;-77
2022/09/09 01:56:50;;;;;;;13.38;8.40;;;13.90;99.90;;;;;;5073890;28;20564;-77
2022/09/09 01:59:31;;;;;;;16.27;9.35;;;13.90;99.90;;;;;;5073543;28;20089;-77
2022/09/09 02:02:11;;;;;;;13.38;9.13;;;13.90;99.90;;;;;;5073723;28;20102;-78
2022/09/09 02:04:37;;;;;;;14.73;9.75;;;13.90;99.90;;;;;;5073652;28;20048;-77
2022/09/09 02:07:08;;;;;;;15.68;9.82;;;13.90;99.90;;;;;;5056058;28;20080;-79
2022/09/09 02:09:35;;;;;;;12.63;9.25;;;13.90;99.90;;;;;;5073375;28;20455;-78
2022/09/09 02:12:09;;;;;;;12.90;9.55;;;13.90;99.90;;;;;;5073451;28;20044;-78
2022/09/09 02:14:41;;;;;;;13.07;9.98;;;13.90;99.90;;;;;;5056149;28;20036;-78
2022/09/09 02:17:13;;;;;;;16.90;10.18;;;14.00;99.90;;;;;;5054957;28;20047;-78
2022/09/09 02:19:46;;;;;;;13.27;10.02;;;14.00;99.90;;;;;;5073447;28;20045;-78
2022/09/09 02:22:12;;;;;;;12.98;9.75;;;14.10;99.90;;;;;;5073217;28;20101;-78
2022/09/09 02:24:40;;;;;;;14.48;10.43;;;14.10;99.90;;;;;;5055859;28;20040;-79
2022/09/09 02:27:09;;;;;;;14.02;10.55;;;14.10;99.90;;;;;;5073326;28;20354;-80
2022/09/09 02:29:41;;;;;;;13.95;8.73;;;14.10;99.90;;;;;;5073241;28;20041;-77
2022/09/09 02:32:11;;;;;;;16.08;10.30;;;14.10;99.90;;;;;;5055453;28;20106;-78
2022/09/09 02:34:47;;;;;;;13.73;10.15;;;14.10;99.90;;;;;;5055717;28;20395;-78
2022/09/09 02:37:17;;;;;;;18.75;10.32;;;14.10;99.90;;;;;;5072871;28;20051;-77
2022/09/09 02:39:43;;;;;;;13.30;9.50;;;14.10;99.90;;;;;;5073076;28;20409;-77
2022/09/09 02:42:09;;;;;;;15.02;8.02;;;14.20;99.90;;;;;;5055677;28;20033;-78
2022/09/09 02:44:36;;;;;;;17.75;10.60;;;14.20;99.90;;;;;;5072979;28;20110;-78
2022/09/09 02:47:17;;;;;;;16.73;8.88;;;14.20;99.90;;;;;;5055350;28;20044;-78
2022/09/09 02:49:50;;;;;;;13.93;9.70;;;14.20;99.90;;;;;;5077462;28;20048;-77
2022/09/09 02:52:22;;;;;;;17.13;9.88;;;14.20;99.90;;;;;;5055907;28;20136;-79
2022/09/09 02:54:54;;;;;;;15.25;9.05;;;14.20;99.90;;;;;;5073020;28;20083;-79
2022/09/09 02:57:22;;;;;;;15.02;8.82;;;14.20;99.90;;;;;;5072462;28;20458;-78
2022/09/09 02:59:50;;;;;;;12.70;8.38;;;14.30;99.90;;;;;;5072707;28;20036;-77
2022/09/09 03:02:16;;;;;;;14.07;8.05;;;14.30;99.90;;;;;;5055044;28;20101;-78
2022/09/09 03:04:44;;;;;;;15.55;8.50;;;14.30;99.90;;;;;;5072729;28;20056;-77
2022/09/09 03:07:11;;;;;;;12.60;8.70;;;14.30;99.90;;;;;;5055108;28;20052;-78
2022/09/09 03:09:37;;;;;;;15.52;8.68;;;14.30;99.90;;;;;;5072637;28;20048;-79
2022/09/09 03:12:04;;;;;;;13.52;8.95;;;14.30;99.90;;;;;;5054675;28;20047;-77
2022/09/09 03:14:30;;;;;;;13.18;9.05;;;14.30;99.90;;;;;;5055077;28;20036;-78
2022/09/09 03:16:57;;;;;;;16.90;9.25;;;14.30;99.90;;;;;;5072356;28;20434;-77
2022/09/09 03:19:24;;;;;;;14.20;8.68;;;14.30;99.90;;;;;;5054920;28;20055;-77
2022/09/09 03:21:50;;;;;;;17.35;9.13;;;14.30;99.90;;;;;;5072613;28;20055;-78
2022/09/09 03:24:15;;;;;;;17.35;9.48;;;14.30;99.90;;;;;;5054851;28;20040;-78
2022/09/09 03:26:44;;;;;;;17.27;9.65;;;14.30;99.90;;;;;;5054809;28;20052;-77
2022/09/09 03:29:12;;;;;;;17.92;9.48;;;14.20;99.90;;;;;;5072149;28;20449;-77
2022/09/09 03:31:39;;;;;;;17.08;10.85;;;14.20;99.90;;;;;;5054760;28;20044;-80
2022/09/09 03:34:05;;;;;;;15.30;9.35;;;14.20;99.90;;;;;;5054980;28;20047;-77
2022/09/09 03:36:31;;;;;;;21.65;9.88;;;14.20;99.90;;;;;;5054641;28;20365;-79
2022/09/09 03:38:57;;;;;;;16.02;10.00;;;14.20;99.90;;;;;;5072277;28;20060;-77
2022/09/09 03:41:24;;;;;;;16.30;9.13;;;14.10;99.90;;;;;;5072177;28;20040;-77
2022/09/09 03:43:53;;;;;;;14.75;10.77;;;14.10;99.90;;;;;;5072065;28;20036;-77
2022/09/09 03:46:24;;;;;;;14.45;9.65;;;14.10;99.90;;;;;;5054809;28;20080;-79
2022/09/09 03:48:52;;;;;;;15.80;10.20;;;14.10;99.90;;;;;;5072201;28;20056;-78
2022/09/09 03:51:18;;;;;;;18.98;10.07;;;14.10;99.90;;;;;;5072086;28;20044;-78
2022/09/09 03:53:44;;;;;;;14.18;8.63;;;14.10;99.90;;;;;;5054455;28;20040;-77
2022/09/09 03:56:10;;;;;;;15.45;9.35;;;14.10;99.90;;;;;;5054615;28;20562;-78
2022/09/09 03:58:39;;;;;;;14.43;8.77;;;14.10;99.90;;;;;;5054645;28;20450;-78
2022/09/09 04:01:10;;;;;;;15.23;8.38;;;14.10;99.90;;;;;;5054606;28;20052;-78
2022/09/09 04:03:36;;;;;;;11.93;7.65;;;14.10;99.90;;;;;;5054759;28;20043;-79
2022/09/09 04:06:06;;;;;;;13.07;7.88;;;14.10;99.90;;;;;;5054506;28;20123;-79
2022/09/09 04:08:32;;;;;;;11.15;8.20;;;14.10;99.90;;;;;;5054564;28;20331;-79
2022/09/09 04:10:57;;;;;;;14.48;7.80;;;14.10;99.90;;;;;;5054425;28;20056;-77
2022/09/09 04:13:24;;;;;;;10.23;7.32;;;14.10;99.90;;;;;;5072025;28;20041;-78
2022/09/09 04:15:52;;;;;;;12.20;7.18;;;14.20;99.90;;;;;;5072111;28;20048;-77
2022/09/09 04:18:19;;;;;;;15.23;8.57;;;14.20;99.90;;;;;;5072010;28;20047;-77
2022/09/09 04:20:50;;;;;;;15.52;9.10;;;14.20;99.90;;;;;;5054461;28;20048;-78
2022/09/09 04:23:16;;;;;;;12.65;9.07;;;14.20;99.90;;;;;;5054423;28;20346;-77
2022/09/09 04:25:48;;;;;;;18.48;10.65;;;14.20;99.90;;;;;;5054454;28;20412;-78
2022/09/09 04:28:15;;;;;;;18.85;11.40;;;14.20;99.90;;;;;;5054329;28;20044;-78
2022/09/09 04:30:42;;;;;;;20.42;11.82;;;14.10;99.90;;;;;;5054345;28;20040;-79
2022/09/09 04:33:09;;;;;;;23.10;12.45;;;14.20;99.90;;;;;;5053937;28;20044;-79
2022/09/09 04:35:37;;;;;;;19.67;12.55;;;14.20;99.90;;;;;;5071887;28;20059;-77
2022/09/09 04:38:03;;;;;;;22.95;12.18;;;14.20;99.90;;;;;;5071514;28;20468;-79
2022/09/09 04:40:30;;;;;;;21.92;12.38;;;14.20;99.90;;;;;;5074528;28;20044;-77
2022/09/09 04:43:01;;;;;;;17.63;11.90;;;14.20;99.90;;;;;;5075288;28;20032;-79
2022/09/09 04:45:27;;;;;;;14.85;11.10;;;14.20;99.90;;;;;;5057517;28;20036;-79
2022/09/09 04:47:53;;;;;;;18.13;12.18;;;14.20;99.90;;;;;;5057357;28;20055;-77
2022/09/09 04:50:19;;;;;;;18.10;11.50;;;14.20;99.90;;;;;;5057746;28;20370;-77
2022/09/09 04:52:45;;;;;;;17.20;11.63;;;14.10;99.90;;;;;;5074841;28;20461;-77
2022/09/09 04:55:12;;;;;;;18.67;12.40;;;14.10;99.90;;;;;;5057636;28;20115;-77
2022/09/09 04:57:39;;;;;;;17.35;11.10;;;14.10;99.90;;;;;;5040979;28;20083;-77
2022/09/09 05:00:05;;;;;;;15.43;10.63;;;14.10;99.90;;;;;;5075037;28;20036;-79
2022/09/09 05:02:32;;;;;;;18.33;11.18;;;14.10;99.90;;;;;;5040812;28;20040;-78
2022/09/09 05:04:58;;;;;;;22.65;11.43;;;14.00;99.90;;;;;;5040850;28;20044;-77
2022/09/09 05:07:26;;;;;;;17.23;11.38;;;14.00;99.90;;;;;;5074830;28;20044;-77
2022/09/09 05:09:52;;;;;;;13.32;9.07;;;14.00;99.90;;;;;;5057010;28;20049;-78
2022/09/09 05:12:17;;;;;;;16.38;10.30;;;14.00;99.90;;;;;;5057107;28;20044;-78
2022/09/09 05:14:44;;;;;;;17.90;10.90;;;14.00;99.90;;;;;;5074746;28;20049;-77
2022/09/09 05:17:10;;;;;;;18.95;11.85;;;14.00;99.90;;;;;;5057023;28;20044;-78
2022/09/09 05:19:36;;;;;;;20.58;10.80;;;13.90;99.90;;;;;;5074715;28;20037;-79
2022/09/09 05:22:02;;;;;;;18.92;11.32;;;13.90;99.90;;;;;;5057135;28;20127;-79
2022/09/09 05:24:29;;;;;;;19.50;11.55;;;13.90;99.90;;;;;;5057979;28;20055;-77
2022/09/09 05:26:57;;;;;;;16.92;11.18;;;13.90;99.90;;;;;;5057109;28;20099;-77
2022/09/09 05:29:23;;;;;;;17.92;11.40;;;13.90;99.90;;;;;;5073899;28;20437;-77
2022/09/09 05:31:49;;;;;;;20.10;11.15;;;13.90;99.90;;;;;;5074247;28;20262;-79
2022/09/09 05:34:15;;;;;;;14.27;9.57;;;13.90;99.90;;;;;;5056839;28;20298;-78
2022/09/09 05:36:40;;;;;;;15.77;10.32;;;13.90;99.90;;;;;;5057001;28;20044;-77
2022/09/09 05:39:06;;;;;;;18.35;11.25;;;13.90;99.90;;;;;;5074333;28;20418;-78
2022/09/09 05:41:32;;;;;;;18.73;10.60;;;13.80;99.90;;;;;;5074293;28;20041;-79
2022/09/09 05:44:01;;;;;;;17.67;10.75;;;13.80;99.90;;;;;;5056726;28;20121;-77
2022/09/09 05:46:27;;;;;;;16.70;10.43;;;13.80;99.90;;;;;;5056655;28;20044;-80
2022/09/09 05:48:53;;;;;;;19.85;11.45;;;13.80;99.90;;;;;;5073749;28;20456;-77
2022/09/09 05:51:22;;;;;;;18.38;11.70;;;13.90;99.90;;;;;;5055052;28;20056;-78
2022/09/09 05:53:49;;;;;;;19.10;11.30;;;13.90;99.90;;;;;;5073979;28;20083;-78
2022/09/09 05:56:24;;;;;;;17.00;10.88;;;13.90;99.90;;;;;;5074073;28;20137;-78
2022/09/09 05:58:51;;;;;;;16.60;9.75;;;13.90;99.90;;;;;;5074774;28;20048;-78
2022/09/09 06:01:20;;;;;;;13.98;9.50;;;13.90;99.90;;;;;;5077565;28;20036;-78
2022/09/09 06:03:47;;;;;;;15.82;10.55;;;13.90;99.90;;;;;;5076350;28;20050;-78
2022/09/09 06:06:22;;;;;;;20.70;11.40;;;13.90;99.90;;;;;;5056259;28;20048;-79
2022/09/09 06:08:51;;;;;;;18.38;10.88;;;13.90;99.90;;;;;;5073841;28;20071;-77
2022/09/09 06:11:19;;;;;;;18.23;11.60;;;13.90;99.90;;;;;;5056242;28;20044;-79
2022/09/09 06:13:47;;;;;;;17.63;10.63;;;14.00;99.90;;;;;;5056232;28;20055;-78
2022/09/09 06:16:15;;;;;;;18.10;11.68;;;14.00;99.90;;;;;;5056132;28;20454;-78
2022/09/09 06:18:42;;;;;;;15.90;9.82;;;14.00;99.90;;;;;;5073238;28;20708;-78
2022/09/09 06:21:33;;;;;;;16.27;10.30;;;14.10;99.90;;;;;;5073393;28;20048;-78
2022/09/09 06:23:59;;;;;;;18.27;10.45;;;14.00;99.90;;;;;;5067901;28;20060;-79
2022/09/09 06:26:34;;;;;;;19.10;10.52;;;14.10;99.90;;;;;;5055841;28;20044;-79
2022/09/09 06:29:03;;;;;;;15.07;10.15;;;14.20;99.90;;;;;;5055725;28;20054;-77
2022/09/09 06:31:31;;;;;;;16.23;8.90;;;14.20;99.90;;;;;;5073209;28;20076;-79
2022/09/09 06:33:58;;;;;;;13.82;9.75;;;14.30;99.90;;;;;;5073377;28;20051;-79
2022/09/09 06:36:25;;;;;;;14.95;8.90;;;14.30;99.90;;;;;;5073017;28;20050;-78
2022/09/09 06:38:51;;;;;;;15.60;9.50;;;14.50;99.90;;;;;;5073107;28;20044;-78
2022/09/09 06:41:19;;;;;;;14.30;9.15;;;14.50;99.90;;;;;;5055663;28;20044;-78
2022/09/09 06:43:49;;;;;;;11.50;8.77;;;14.50;99.90;;;;;;5072730;28;20044;-78
2022/09/09 06:46:18;;;;;;;12.80;8.27;;;14.60;99.90;;;;;;5055672;28;20105;-79
2022/09/09 06:48:44;;;;;;;18.63;10.13;;;14.50;99.90;;;;;;5055127;28;20048;-79
2022/09/09 06:51:19;;;;;;;13.88;9.05;;;14.50;99.90;;;;;;5072951;28;20052;-78
2022/09/09 06:53:46;;;;;;;12.30;9.27;;;14.50;99.90;;;;;;5055458;28;20036;-77
2022/09/09 06:56:23;;;;;;;11.65;8.90;;;14.50;99.90;;;;;;5055925;28;20051;-78
2022/09/09 06:58:50;;;;;;;12.52;9.40;;;14.40;99.90;;;;;;5055177;28;20043;-77
2022/09/09 07:01:21;;;;;;;11.23;9.20;;;14.40;99.90;;;;;;5055199;28;20033;-79
2022/09/09 07:03:50;;;;;;;14.15;9.80;;;14.40;99.90;;;;;;5072685;28;20041;-78
2022/09/09 07:06:21;;;;;;;12.00;8.07;;;14.40;99.90;;;;;;5072889;28;20040;-78
2022/09/09 07:08:52;;;;;;;12.43;8.20;;;14.50;99.90;;;;;;5055228;28;20044;-78
2022/09/09 07:11:22;;;;;;;12.27;8.75;;;14.50;99.90;;;;;;5072719;28;20037;-78
2022/09/09 07:13:49;;;;;;;11.90;8.50;;;14.50;99.90;;;;;;5055166;28;20570;-79
2022/09/09 07:16:20;;;;;;;15.00;9.02;;;14.50;99.90;;;;;;5072347;28;20825;-78
2022/09/09 07:18:46;;;;;;;12.20;8.68;;;14.50;99.90;;;;;;5038547;28;20064;-80
2022/09/09 07:21:14;;;;;;;13.38;9.40;;;14.50;99.90;;;;;;5072604;28;20080;-79
2022/09/09 07:23:41;;;;;;;13.60;8.80;;;14.50;99.90;;;;;;5072605;28;20138;-77
2022/09/09 07:26:19;;;;;;;11.85;8.32;;;14.60;99.90;;;;;;5072629;28;20036;-78
2022/09/09 07:28:45;;;;;;;10.73;8.45;;;14.60;99.90;;;;;;5054794;28;20048;-77
2022/09/09 07:31:16;;;;;;;14.85;8.70;;;14.70;99.90;;;;;;5072421;28;20412;-78
2022/09/09 07:33:44;;;;;;;13.57;9.07;;;14.80;99.90;;;;;;5054953;28;20044;-79
2022/09/09 07:36:13;;;;;;;15.75;8.73;;;15.00;99.90;;;;;;5054902;28;20040;-79
2022/09/09 07:38:48;;;;;;;12.70;8.13;;;15.20;99.90;;;;;;5054556;28;20044;-79
2022/09/09 07:41:23;;;;;;;13.38;6.88;;;15.50;99.90;;;;;;5055056;28;20040;-79
2022/09/09 07:43:50;;;;;;;11.02;7.30;;;15.70;99.90;;;;;;5072299;28;20365;-78
2022/09/09 07:46:19;;;;;;;11.02;7.05;;;15.80;99.90;;;;;;5072268;28;20041;-78
2022/09/09 07:48:53;;;;;;;10.80;6.70;;;15.90;99.90;;;;;;5071747;28;20115;-79
2022/09/09 07:51:25;;;;;;;11.88;7.18;;;16.00;99.90;;;;;;5072104;28;20048;-79
2022/09/09 07:53:54;;;;;;;9.85;6.65;;;16.10;99.90;;;;;;5054687;28;20106;-79
2022/09/09 07:56:23;;;;;;;9.35;6.82;;;16.20;99.90;;;;;;5055201;28;20060;-79
2022/09/09 07:58:50;;;;;;;8.75;6.10;;;16.30;99.90;;;;;;5039232;28;20041;-79
2022/09/09 08:01:27;;;;;;;10.32;6.38;;;16.30;99.90;;;;;;5032193;28;20045;-79
2022/09/09 08:03:59;;;;;;;11.40;5.80;;;16.40;99.90;;;;;;5031337;28;20067;-79
2022/09/09 08:06:26;;;;;;;12.45;5.78;;;16.50;99.90;;;;;;5072090;28;20048;-78
2022/09/09 08:08:54;;;;;;;10.77;6.35;;;16.50;99.90;;;;;;5037839;28;20098;-80
2022/09/09 08:11:26;;;;;;;8.63;5.47;;;16.50;99.90;;;;;;5052106;28;20052;-80
2022/09/09 08:13:53;;;;;;;12.68;5.25;;;16.60;99.90;;;;;;5054622;28;20653;-79
2022/09/09 08:16:25;;;;;;;11.43;4.85;;;16.60;99.90;;;;;;5058028;28;20040;-80
2022/09/09 08:18:52;;;;;;;11.05;5.30;;;16.60;99.90;;;;;;5058238;28;20055;-79
2022/09/09 08:21:21;;;;;;;8.77;4.93;;;16.70;99.90;;;;;;5075653;28;20037;-79
2022/09/09 08:23:48;;;;;;;8.38;4.47;;;17.00;99.90;;;;;;5075470;28;20049;-80
2022/09/09 08:26:21;;;;;;;9.95;4.25;;;17.10;99.90;;;;;;5058153;28;20202;-79
2022/09/09 08:28:47;;;;;;;11.85;4.10;;;17.40;99.90;;;;;;5075401;28;20045;-79
2022/09/09 08:31:16;;;;;;;6.97;4.40;;;17.50;99.90;;;;;;5075186;28;20040;-78
2022/09/09 08:33:45;;;;;;;11.70;3.92;;;17.80;99.90;;;;;;5057972;28;20394;-79
2022/09/09 08:36:14;;;;;;;7.93;4.15;;;17.90;99.90;;;;;;5075480;28;20487;-79
2022/09/09 08:38:41;;;;;;;6.50;4.10;;;17.80;99.90;;;;;;5075429;28;20060;-80
2022/09/09 08:41:52;;;;;;;9.88;3.97;;;17.70;99.90;;;;;;5075254;28;20048;-80
2022/09/09 08:44:55;;;;;;;8.85;4.30;;;17.90;99.90;;;;;;5057519;28;20045;-79
2022/09/09 08:47:40;;;;;;;7.72;4.20;;;18.00;99.90;;;;;;5074960;28;20057;-80
2022/09/09 08:50:21;;;;;;;8.85;3.75;;;18.30;99.90;;;;;;5075047;28;20044;-79
2022/09/09 08:53:07;;;;;;;6.78;3.33;;;18.30;99.90;;;;;;5057235;28;20422;-78
2022/09/09 08:55:45;;;;;;;11.00;3.67;;;18.20;99.90;;;;;;5057531;28;20127;-78
2022/09/09 08:58:17;;;;;;;7.35;2.97;;;18.10;99.90;;;;;;5074903;28;20058;-79
2022/09/09 09:00:42;;;;;;;10.00;3.72;;;18.30;99.90;;;;;;5075128;28;20438;-77
2022/09/09 09:03:11;;;;;;;6.50;3.45;;;18.50;99.90;;;;;;5057520;28;20055;-79
2022/09/09 09:06:01;;;;;;;9.77;3.80;;;18.60;99.90;;;;;;5057131;28;20476;-79
2022/09/09 09:08:40;;;;;;;10.65;2.83;;;18.80;99.90;;;;;;5057179;28;20044;-78
2022/09/09 09:11:06;;;;;;;6.07;3.33;;;18.80;99.90;;;;;;5057123;28;20749;-80
2022/09/09 09:13:48;;;;;;;7.25;3.00;;;18.60;99.90;;;;;;5074699;28;20050;-80
2022/09/09 09:16:33;;;;;;;5.55;3.20;;;18.40;99.90;;;;;;5057050;28;20040;-77
2022/09/09 09:19:00;;;;;;;7.32;3.00;;;18.20;99.90;;;;;;5074509;28;20086;-78
2022/09/09 09:21:58;;;;;;;8.13;2.85;;;18.00;99.90;;;;;;5056799;28;20101;-79
2022/09/09 09:24:52;;;;;;;6.53;2.95;;;17.90;99.90;;;;;;5074040;28;20131;-79
2022/09/09 09:28:05;;;;;;;6.88;3.10;;;17.80;99.90;;;;;;5065610;28;20057;-79
2022/09/09 09:31:06;;;;;;;7.88;2.75;;;17.90;99.90;;;;;;5065266;28;20127;-78
2022/09/09 09:33:49;;;;;;;11.85;3.53;;;18.40;99.90;;;;;;5034632;28;20129;-78
2022/09/09 09:36:16;;;;;;;6.35;2.75;;;18.60;99.90;;;;;;5040296;28;20056;-79
2022/09/09 09:39:00;;;;;;;7.20;2.83;;;19.00;99.90;;;;;;5056717;28;20044;-78
2022/09/09 09:41:34;;;;;;;10.93;2.47;;;19.00;99.90;;;;;;5056619;28;20113;-79
2022/09/09 09:44:01;;;;;;;6.43;2.20;;;18.90;99.90;;;;;;5056512;28;20432;-78
2022/09/09 09:46:27;;;;;;;7.47;2.20;;;18.80;99.90;;;;;;5073906;28;20396;-78
2022/09/09 09:49:01;;;;;;;5.43;1.90;;;18.80;99.90;;;;;;5055991;28;20113;-78
2022/09/09 09:51:29;;;;;;;6.68;2.08;;;18.80;99.90;;;;;;5073809;28;20049;-79
2022/09/09 09:54:09;;;;;;;8.43;1.73;;;18.80;99.90;;;;;;5056360;28;20090;-79
2022/09/09 09:56:35;;;;;;;;;;;18.90;99.90;;;;;;5074131;28;20131;-78
2022/09/09 09:59:01;;;;;;;6.88;1.77;;;18.90;99.90;;;;;;5056336;28;19991;-79
2022/09/09 10:01:32;;;;;;;7.07;1.80;;;19.10;99.90;;;;;;5073712;28;20357;-78
2022/09/09 10:04:23;;;;;;;5.95;1.92;;;19.40;99.90;;;;;;5074251;28;20078;-79
2022/09/09 10:06:50;;;;;;;6.00;1.70;;;19.40;99.90;;;;;;5059674;28;20556;-78
2022/09/09 10:09:24;;;;;;;7.72;1.90;;;19.60;99.90;;;;;;5059132;28;20048;-79
2022/09/09 10:12:04;;;;;;;6.93;1.65;;;19.90;99.90;;;;;;5073542;28;20442;-79
2022/09/09 10:14:56;;;;;;;6.85;1.55;;;19.80;99.90;;;;;;5055767;28;20507;-78
2022/09/09 10:17:32;;;;;;;8.63;1.40;;;19.40;99.90;;;;;;5073180;28;20045;-79
2022/09/09 10:20:10;;;;;;;5.40;1.52;;;19.10;99.90;;;;;;5073372;28;20045;-80
2022/09/09 10:22:39;;;;;;;7.53;2.10;;;18.80;99.90;;;;;;5055583;28;20405;-80
2022/09/09 10:25:38;;;;;;;9.13;1.58;;;18.60;99.90;;;;;;5055999;28;20051;-78
2022/09/09 10:28:40;;;;;;;7.13;1.67;;;18.40;99.90;;;;;;5055861;28;20040;-79
2022/09/09 10:31:35;;;;;;;11.10;2.00;;;18.40;99.90;;;;;;5055520;28;20056;-79
2022/09/09 10:34:17;;;;;;;6.82;1.73;;;18.40;99.90;;;;;;5063461;28;20055;-81
2022/09/09 10:36:49;;;;;;;6.35;1.80;;;18.30;99.90;;;;;;5054906;28;20405;-78
2022/09/09 10:39:37;;;;;;;4.43;1.70;;;18.30;99.90;;;;;;5073006;28;20326;-79
2022/09/09 10:42:26;;;;;;;8.90;2.95;;;18.30;99.90;;;;;;5055563;28;20071;-79
2022/09/09 10:44:59;;;;;;;4.88;1.67;;;18.40;99.90;;;;;;5055294;28;20032;-78
2022/09/09 10:47:50;;;;;;;4.68;1.42;;;18.50;99.90;;;;;;5072400;28;20425;-78
2022/09/09 10:50:22;;;;;;;7.05;2.03;;;18.60;99.90;;;;;;5072383;28;20067;-81
2022/09/09 10:53:22;;;;;;;4.75;1.60;;;18.60;99.90;;;;;;5072064;28;20454;-78
2022/09/09 10:55:56;;;;;;;4.97;1.45;;;18.60;99.90;;;;;;5054876;28;20044;-79
2022/09/09 10:58:40;;;;;;;9.45;2.17;;;18.50;99.90;;;;;;5054834;28;20036;-79
2022/09/09 11:01:35;;;;;;;5.25;2.03;;;18.50;99.90;;;;;;5071988;28;20048;-79
2022/09/09 11:04:19;;;;;;;6.13;1.90;;;18.50;99.90;;;;;;5040652;28;20052;-78
2022/09/09 11:06:52;;;;;;;9.32;2.00;;;18.40;99.90;;;;;;5054716;28;20072;-80
2022/09/09 11:09:26;;;;;;;7.63;2.13;;;18.30;99.90;;;;;;5072091;28;20055;-79
2022/09/09 11:11:56;;;;;;;8.27;1.75;;;18.20;99.90;;;;;;5072001;28;20342;-78
2022/09/09 11:14:51;;;;;;;6.68;2.10;;;18.10;99.90;;;;;;5054504;28;20404;-78
2022/09/09 11:17:40;;;;;;;7.05;1.65;;;17.90;99.90;;;;;;5038336;28;20053;-79
2022/09/09 11:20:11;;;;;;;5.93;2.10;;;17.80;99.90;;;;;;5072447;28;20127;-77
2022/09/09 11:22:50;;;;;;;9.80;2.88;;;17.80;99.90;;;;;;5057098;28;20298;-77
2022/09/09 11:25:35;;;;;;;7.30;1.88;;;17.90;99.90;;;;;;5058338;28;20045;-80
2022/09/09 11:28:20;;;;;;;7.85;1.70;;;18.10;99.90;;;;;;5076275;28;20048;-78
2022/09/09 11:31:02;;;;;;;8.77;2.05;;;18.50;99.90;;;;;;5058463;28;20480;-85
2022/09/09 11:33:33;;;;;;;6.03;2.28;;;18.90;99.90;;;;;;5057811;28;20101;-79
2022/09/09 11:36:30;;;;;;;4.95;1.55;;;19.00;99.90;;;;;;5058692;28;20059;-77
2022/09/09 11:39:38;;;;;;;8.05;1.85;;;19.00;99.90;;;;;;5057946;28;20047;-78
2022/09/09 11:42:19;;;;;;;8.95;2.30;;;18.80;99.90;;;;;;5075520;28;20051;-78
2022/09/09 11:44:45;;;;;;;7.80;2.30;;;18.80;99.90;;;;;;5057675;28;20378;-79
2022/09/09 11:47:26;;;;;;;6.40;1.90;;;18.80;99.90;;;;;;5057386;28;20098;-78
2022/09/09 11:49:53;;;;;;;9.55;2.22;;;18.90;99.90;;;;;;5059678;28;20104;-77
2022/09/09 11:52:26;;;;;;;7.97;2.42;;;19.10;99.90;;;;;;5056221;28;20101;-78
2022/09/09 11:54:55;;;;;;;5.75;1.85;;;19.30;99.90;;;;;;5025998;28;20138;-80
2022/09/09 11:57:35;;;;;;;8.05;1.85;;;19.30;99.90;;;;;;5038821;28;20217;-79
2022/09/09 12:00:03;;;;;;;;;;;19.30;99.90;;;;;;5038979;28;20168;-78
2022/09/09 12:02:32;;;;;;;7.07;2.13;;;19.20;99.90;;;;;;5055960;28;20011;-82
2022/09/09 12:05:08;;;;;;;6.65;1.65;;;19.00;99.90;;;;;;5038216;28;20128;-87
2022/09/09 12:07:42;;;;;;;6.82;1.95;;;18.90;99.90;;;;;;5021953;28;20045;-83
2022/09/09 12:10:08;;;;;;;6.53;2.42;;;18.80;99.90;;;;;;5055357;28;20490;-78
2022/09/09 12:12:36;;;;;;;7.75;1.80;;;18.70;99.90;;;;;;5055501;28;20088;-79
2022/09/09 12:15:07;;;;;;;4.50;1.63;;;18.70;99.90;;;;;;5038056;28;20041;-81
2022/09/09 12:17:47;;;;;;;6.32;1.98;;;18.70;99.90;;;;;;5055383;28;20037;-80
2022/09/09 12:20:17;;;;;;;4.43;1.33;;;18.80;99.90;;;;;;5037963;28;20045;-80
2022/09/09 12:22:49;;;;;;;9.52;2.35;;;18.70;99.90;;;;;;5038196;28;20043;-79
2022/09/09 12:25:28;;;;;;;6.38;1.70;;;18.80;99.90;;;;;;5021457;28;20052;-80
2022/09/09 12:28:16;;;;;;;7.65;1.67;;;18.70;99.90;;;;;;5055205;28;20041;-80
2022/09/09 12:30:52;;;;;;;8.13;1.63;;;18.70;99.90;;;;;;5021120;28;20041;-80
2022/09/09 12:33:19;;;;;;;11.38;2.13;;;18.60;99.90;;;;;;5021009;28;20036;-81
2022/09/09 12:35:51;;;;;;;10.98;2.80;;;18.50;99.90;;;;;;5021199;28;20470;-79
2022/09/09 12:38:40;;;;;;;7.47;2.70;;;18.30;99.90;;;;;;5037831;28;20096;-79
2022/09/09 12:41:06;;;;;;;7.20;3.17;;;18.00;99.90;;;;;;5037501;28;20037;-80
2022/09/09 12:43:32;;;;;;;8.02;2.83;;;18.00;99.90;;;;;;5037478;28;20203;-78
2022/09/09 12:46:07;;;;;;;4.70;2.90;;;18.20;99.90;;;;;;5037775;28;20422;-80
2022/09/09 12:48:37;;;;;;;9.07;2.95;;;18.50;99.90;;;;;;5067422;28;20057;-79
2022/09/09 12:51:06;;;;;;;5.47;3.00;;;18.80;99.90;;;;;;5074759;28;20044;-78
2022/09/09 12:53:35;;;;;;;6.47;2.00;;;18.80;99.90;;;;;;5040820;28;20040;-79
2022/09/09 12:56:07;;;;;;;7.57;2.88;;;18.90;99.90;;;;;;5057156;28;20047;-80
2022/09/09 12:58:34;;;;;;;8.93;2.63;;;18.90;99.90;;;;;;5074828;28;20040;-79
2022/09/09 13:01:03;;;;;;;7.65;3.58;;;18.80;99.90;;;;;;5090384;28;20044;-80
2022/09/09 13:03:28;;;;;;;8.27;2.63;;;18.60;99.90;;;;;;5057166;28;20098;-80
2022/09/09 13:06:00;;;;;;;6.05;2.72;;;18.40;99.90;;;;;;5057062;28;20080;-78
2022/09/09 13:08:26;;;;;;;4.63;1.20;;;18.30;99.90;;;;;;5040475;28;20457;-78